Time;durP1;ratioP1;P1;durP2;ratioP2;P2;SDS_P1;SDS_P2;PMS_P1;PMS_P2;Temp;Humidity;BMP_temperature;BMP_pressure;BME280_temperature;BME280_humidity;BME280_pressure;Samples;Min_cycle;Max_cycle;Signal;HPM_P1;HPM_P2
2023/05/25 00:00:59;;;;;;;;;;;15.30;57.90;;;15.40;39.50;99080.91;5086764;27;125748;-87
2023/05/25 00:03:42;;;;;;;;;;;15.20;58.10;;;15.38;39.94;99077.63;5080866;27;114443;-84
2023/05/25 00:06:09;;;;;;;;;;;15.10;58.10;;;15.35;39.73;99081.09;5086359;27;113730;-87
2023/05/25 00:08:41;;;;;;;;;;;15.10;58.30;;;15.30;40.10;99077.69;5057581;27;124793;-87
2023/05/25 00:11:11;;;;;;;;;;;15.10;58.60;;;15.24;39.97;99083.47;5088754;27;123956;-88
2023/05/25 00:13:38;;;;;;;;;;;15.10;58.60;;;15.21;40.14;99077.75;5070732;27;115556;-86
2023/05/25 00:16:10;;;;;;;;;;;15.00;58.60;;;15.21;40.31;99080.53;5088966;27;114660;-87
2023/05/25 00:18:40;;;;;;;;;;;15.00;58.80;;;15.16;40.48;99081.53;5080255;27;124150;-87
2023/05/25 00:21:06;;;;;;;;;;;15.00;59.10;;;15.12;40.63;99082.53;5078067;27;124006;-87
2023/05/25 00:23:33;;;;;;;;;;;14.90;59.00;;;15.08;40.77;99084.38;5075458;27;114488;-85
2023/05/25 00:26:02;;;;;;;;;;;14.90;59.30;;;15.06;40.59;99081.09;5071148;27;113773;-87
2023/05/25 00:28:44;;;;;;;;;;;14.80;59.30;;;15.00;40.78;99086.06;5061602;27;124098;-87
2023/05/25 00:31:11;;;;;;;;;;;14.80;59.70;;;14.93;41.21;99074.63;5083284;27;124082;-87
2023/05/25 00:33:49;;;;;;;;;;;14.80;60.20;;;14.90;41.65;99084.44;5087530;27;114346;-89
2023/05/25 00:36:18;;;;;;;;;;;14.70;60.00;;;14.86;41.35;99069.59;5084422;27;113695;-87
2023/05/25 00:41:47;;;;;;;;;;;14.70;60.40;;;14.81;41.61;99075.34;5007002;28;123955;-86
2023/05/25 00:44:14;;;;;;;;;;;14.60;60.60;;;14.84;41.58;99073.84;5068655;27;114194;-88
2023/05/25 00:46:49;;;;;;;;;;;14.70;60.60;;;14.84;41.70;99080.22;5069282;27;114264;-88
2023/05/25 00:49:22;;;;;;;;;;;14.60;61.10;;;14.83;41.85;99078.59;5067677;27;124201;-87
2023/05/25 00:51:48;;;;;;;;;;;14.60;61.10;;;14.81;41.64;99072.56;5081111;27;124163;-87
2023/05/25 00:54:18;;;;;;;;;;;14.60;61.00;;;14.79;41.71;99066.50;5067197;27;114181;-87
2023/05/25 00:57:06;;;;;;;;;;;14.50;61.20;;;14.76;41.66;99062.41;5060283;27;113097;-88
2023/05/25 00:59:40;;;;;;;;;;;14.50;61.20;;;14.77;41.88;99069.59;5065150;27;123617;-87
2023/05/25 01:02:12;;;;;;;;;;;14.50;61.20;;;14.75;41.85;99057.22;5075528;27;123696;-89
2023/05/25 01:04:44;;;;;;;;;;;14.50;61.40;;;14.72;41.96;99061.47;5067169;27;114938;-89
2023/05/25 01:07:18;;;;;;;;;;;14.50;61.40;;;14.74;42.29;99055.56;5062923;27;114700;-89
2023/05/25 01:09:44;;;;;;;;;;;14.50;61.70;;;14.71;41.93;99053.44;5054205;27;124134;-89
2023/05/25 01:12:21;;;;;;;;;;;14.50;61.50;;;14.71;41.93;99059.81;5073875;27;123954;-89
2023/05/25 01:14:48;;;;;;;;;;;14.50;61.60;;;14.72;41.92;99067.03;5059850;27;113656;-89
2023/05/25 01:17:20;;;;;;;;;;;14.50;61.50;;;14.74;42.01;99063.91;5089428;27;113784;-89
2023/05/25 01:19:47;;;;;;;;;;;14.50;61.60;;;14.76;41.91;99062.41;5069528;27;124227;-89
2023/05/25 01:22:25;;;;;;;;;;;14.50;61.50;;;14.77;41.85;99063.22;5061241;27;123033;-89
2023/05/25 01:25:06;;;;;;;;;;;14.50;61.50;;;14.79;41.81;99055.38;5085768;27;114212;-89
2023/05/25 01:27:57;;;;;;;;;;;14.50;61.50;;;14.79;41.75;99060.94;5089225;27;113662;-89
2023/05/25 01:30:26;;;;;;;;;;;14.50;61.40;;;14.80;41.80;99062.56;5042127;27;124371;-90
2023/05/25 01:32:55;;;;;;;;;;;14.50;61.50;;;14.84;41.79;99054.38;5060420;27;123494;-89
2023/05/25 01:35:22;;;;;;;;;;;13.80;60.90;;;14.85;41.73;99054.03;5071923;27;114459;-89
2023/05/25 01:37:48;;;;;;;;;;;14.60;61.70;;;14.87;41.79;99051.75;5051534;27;113567;-89
2023/05/25 01:40:15;;;;;;;;;;;14.60;61.70;;;14.87;41.76;99053.72;5074971;27;123966;-88
2023/05/25 01:42:43;;;;;;;;;;;14.60;61.60;;;14.87;41.64;99057.31;5090309;27;127830;-89
2023/05/25 01:45:10;;;;;;;;;;;14.60;61.70;;;14.86;41.72;99061.25;5088467;27;114366;-88
2023/05/25 01:48:03;;;;;;;;;;;14.60;61.70;;;14.86;41.86;99066.81;5056757;27;113786;-89
2023/05/25 01:50:32;;;;;;;;;;;14.60;61.70;;;14.85;41.64;99061.56;5061982;27;124210;-88
2023/05/25 01:53:12;;;;;;;;;;;14.50;61.70;;;14.83;42.14;99064.69;5089283;27;124694;-89
2023/05/25 01:55:46;;;;;;;;;;;14.50;61.70;;;14.83;41.82;99061.91;5072534;27;115363;-86
2023/05/25 01:58:14;;;;;;;;;;;14.50;61.80;;;14.83;41.97;99072.19;5079274;27;114212;-89
2023/05/25 02:00:44;;;;;;;;;;;14.50;61.90;;;14.84;42.00;99068.28;5076595;27;123772;-88
2023/05/25 02:03:11;;;;;;;;;;;14.50;61.90;;;14.83;41.89;99067.47;5064990;27;123846;-89
2023/05/25 02:05:42;;;;;;;;;;;14.50;62.00;;;14.79;41.89;99055.38;5088590;27;114251;-88
2023/05/25 02:08:08;;;;;;;;;;;14.50;62.10;;;14.80;42.07;99059.78;5069472;27;114091;-88
2023/05/25 02:10:34;;;;;;;;;;;14.50;62.10;;;14.78;42.15;99062.09;5090948;27;124578;-88
2023/05/25 02:13:06;;;;;;;;;;;14.50;62.20;;;14.76;42.00;99067.97;5077714;27;124679;-88
2023/05/25 02:15:33;;;;;;;;;;;14.50;62.20;;;14.76;42.02;99058.81;5083793;27;114401;-88
2023/05/25 02:18:01;;;;;;;;;;;14.50;62.30;;;14.73;42.22;99056.72;5091151;27;114169;-88
2023/05/25 02:20:31;;;;;;;;;;;14.50;62.40;;;14.73;42.27;99053.94;5068087;27;124327;-88
2023/05/25 02:22:57;;;;;;;;;;;14.50;62.50;;;14.70;42.17;99054.63;5067581;27;123903;-88
2023/05/25 02:25:23;;;;;;;;;;;14.40;62.50;;;14.68;42.21;99043.81;5061773;27;114416;-89
2023/05/25 02:27:50;;;;;;;;;;;14.40;62.50;;;14.65;42.42;99046.44;5074849;27;113755;-88
2023/05/25 02:30:18;;;;;;;;;;;14.40;63.20;;;14.64;42.53;99044.81;5091460;27;124358;-88
2023/05/25 02:32:45;;;;;;;;;;;14.40;62.60;;;14.62;42.35;99050.72;5078365;27;123008;-87
2023/05/25 02:35:11;;;;;;;;;;;14.40;62.70;;;14.62;42.51;99038.78;5092056;27;114468;-88
2023/05/25 02:37:38;;;;;;;;;;;14.40;62.70;;;14.60;42.44;99041.06;5091235;27;113792;-88
2023/05/25 02:40:10;;;;;;;;;;;14.30;62.70;;;14.60;42.42;99046.63;5080653;27;124381;-90
2023/05/25 02:42:37;;;;;;;;;;;14.30;62.80;;;14.57;42.49;99037.81;5083282;27;124238;-87
2023/05/25 02:45:12;;;;;;;;;;;14.30;62.90;;;14.56;42.65;99046.47;5089020;27;115730;-89
2023/05/25 02:47:38;;;;;;;;;;;14.30;63.00;;;14.53;42.75;99045.19;5072447;27;114356;-89
2023/05/25 02:50:07;;;;;;;;;;;14.30;63.20;;;14.52;43.10;99046.31;5081312;27;124876;-89
2023/05/25 02:52:34;;;;;;;;;;;14.30;63.30;;;14.51;42.98;99041.88;5069690;27;124155;-89
2023/05/25 02:55:00;;;;;;;;;;;14.30;63.40;;;14.49;43.27;99046.16;5090132;27;114422;-87
2023/05/25 02:57:32;;;;;;;;;;;14.20;63.90;;;14.43;43.19;99056.63;5073173;27;113631;-87
2023/05/25 02:59:58;;;;;;;;;;;14.20;63.90;;;14.35;43.27;99054.69;5062093;27;123914;-90
2023/05/25 03:02:25;;;;;;;;;;;14.10;63.90;;;14.27;43.23;99069.44;5073041;27;123619;-87
2023/05/25 03:04:58;;;;;;;;;;;14.10;64.00;;;14.21;43.46;99054.91;5049803;27;113378;-86
2023/05/25 03:07:25;;;;;;;;;;;14.00;63.90;;;14.21;43.58;99070.72;5058805;27;113095;-88
2023/05/25 03:09:54;;;;;;;;;;;14.00;64.10;;;14.20;43.87;99067.16;5075591;27;123471;-88
2023/05/25 03:12:23;;;;;;;;;;;14.00;64.30;;;14.19;43.80;99065.53;5057903;27;122948;-84
2023/05/25 03:14:49;;;;;;;;;;;14.00;64.50;;;14.17;43.85;99072.56;5078851;27;114085;-88
2023/05/25 03:17:18;;;;;;;;;;;14.00;64.50;;;14.15;43.85;99068.13;5080891;27;113474;-87
2023/05/25 03:19:44;;;;;;;;;;;13.90;64.40;;;14.14;43.78;99077.63;5080563;27;124511;-88
2023/05/25 03:22:11;;;;;;;;;;;13.90;64.40;;;14.14;43.76;99065.69;5082888;27;124484;-88
2023/05/25 03:24:40;;;;;;;;;;;13.90;64.60;;;14.18;43.93;99074.19;5077578;27;114250;-88
2023/05/25 03:27:07;;;;;;;;;;;13.90;64.80;;;14.19;43.99;99084.97;5094232;27;113696;-89
2023/05/25 03:29:34;;;;;;;;;;;13.90;65.00;;;14.15;44.04;99082.03;5080802;27;124773;-88
2023/05/25 03:32:00;;;;;;;;;;;13.80;65.10;;;14.11;44.03;99075.50;5070796;27;122902;-88
2023/05/25 03:34:33;;;;;;;;;;;13.80;65.10;;;14.10;44.22;99078.59;5090746;27;116005;-88
2023/05/25 03:37:00;;;;;;;;;;;13.80;65.20;;;14.10;44.14;99065.53;5075334;27;114686;-88
2023/05/25 03:39:26;;;;;;;;;;;13.80;65.30;;;14.10;44.03;99075.81;5071917;27;124369;-87
2023/05/25 03:41:58;;;;;;;;;;;13.80;65.30;;;14.08;44.25;99067.03;5088312;27;123858;-88
2023/05/25 03:44:29;;;;;;;;;;;13.80;65.40;;;14.09;44.19;99072.22;5085008;27;114147;-87
2023/05/25 03:46:56;;;;;;;;;;;13.80;65.40;;;14.08;44.21;99070.59;5053959;27;114412;-88
2023/05/25 03:49:22;;;;;;;;;;;13.80;65.40;;;14.08;44.21;99067.03;5077221;27;124592;-88
2023/05/25 03:51:48;;;;;;;;;;;13.80;65.40;;;14.04;44.48;99069.63;5057534;27;124269;-88
2023/05/25 03:54:18;;;;;;;;;;;13.80;65.50;;;14.02;44.56;99077.47;5086911;27;114447;-85
2023/05/25 03:56:44;;;;;;;;;;;13.80;65.60;;;14.03;44.36;99084.66;5090237;27;113642;-87
2023/05/25 03:59:11;;;;;;;;;;;13.80;65.70;;;14.05;44.49;99090.72;5078338;27;124837;-90
2023/05/25 04:01:37;;;;;;;;;;;13.80;65.80;;;14.04;44.52;99089.06;5083101;27;123968;-89
2023/05/25 04:04:07;;;;;;;;;;;13.70;65.80;;;14.05;44.47;99096.28;5058295;27;114212;-90
2023/05/25 04:06:35;;;;;;;;;;;13.70;65.90;;;14.01;44.36;99092.50;5086015;27;113881;-90
2023/05/25 04:09:11;;;;;;;;;;;13.70;66.10;;;14.02;44.72;99101.66;5084046;27;124169;-89
2023/05/25 04:11:37;;;;;;;;;;;13.70;66.10;;;13.96;44.66;99109.34;5062805;27;123258;-90
2023/05/25 04:14:03;;;;;;;;;;;13.70;66.20;;;13.91;44.78;99109.50;5052157;27;113324;-88
2023/05/25 04:16:30;;;;;;;;;;;13.70;66.40;;;13.85;45.16;99110.81;5084713;27;112682;-89
2023/05/25 04:18:56;;;;;;;;;;;13.60;66.50;;;13.80;45.22;99109.00;5076047;27;124833;-89
2023/05/25 04:21:22;;;;;;;;;;;13.60;66.80;;;13.77;45.36;99104.13;5060965;27;124846;-89
2023/05/25 04:23:48;;;;;;;;;;;13.50;66.70;;;13.73;45.43;99103.16;5052523;27;114467;-89
2023/05/25 04:26:18;;;;;;;;;;;13.50;66.90;;;13.69;45.47;99100.19;5065718;27;114763;-89
2023/05/25 04:28:44;;;;;;;;;;;13.50;67.00;;;13.64;45.60;99105.09;5087821;27;124202;-89
2023/05/25 04:31:12;;;;;;;;;;;13.40;67.10;;;13.59;45.92;99102.47;5072636;27;124180;-89
2023/05/25 04:33:48;;;;;;;;;;;13.40;67.30;;;13.56;46.08;99095.59;5067327;27;114593;-89
2023/05/25 04:36:22;;;;;;;;;;;13.40;67.50;;;13.52;46.26;99100.19;5058500;27;113757;-89
2023/05/25 04:38:50;;;;;;;;;;;13.30;67.80;;;13.48;46.33;99105.53;5086714;27;124690;-89
2023/05/25 04:41:18;;;;;;;;;;;13.70;68.50;;;13.48;46.43;99101.97;5062264;27;123391;-90
2023/05/25 04:43:44;;;;;;;;;;;13.30;68.30;;;13.47;46.37;99117.00;5088691;27;114000;-91
2023/05/25 04:46:20;;;;;;;;;;;13.30;68.40;;;13.47;46.48;99111.44;5089927;27;113960;-89
2023/05/25 04:48:54;;;;;;;;;;;13.30;68.60;;;13.50;46.51;99108.00;5058002;27;124537;-89
2023/05/25 04:51:21;;;;;;;;;;;13.30;68.70;;;13.50;46.71;99113.56;5081866;27;123936;-89
2023/05/25 04:53:48;;;;;;;;;;;13.30;68.80;;;13.50;46.71;99116.34;5081803;27;114330;-90
2023/05/25 04:56:24;;;;;;;;;;;13.30;68.90;;;13.52;46.87;99111.28;5056813;27;113375;-89
2023/05/25 04:58:53;;;;;;;;;;;13.30;69.10;;;13.54;46.75;99111.78;5089866;27;124846;-90
2023/05/25 05:01:19;;;;;;;;;;;13.70;69.70;;;13.56;46.70;99111.44;5050014;27;122554;-88
2023/05/25 05:03:46;;;;;;;;;;;13.30;69.40;;;13.61;47.11;99131.53;5065849;27;114790;-88
2023/05/25 05:06:12;;;;;;;;;;;13.30;69.60;;;13.63;47.07;99126.47;5062214;27;114468;-88
2023/05/25 05:08:42;;;;;;;;;;;13.30;69.60;;;13.65;47.09;99126.97;5077405;27;124629;-89
2023/05/25 05:11:08;;;;;;;;;;;13.30;69.80;;;13.67;46.86;99115.53;5056004;27;124574;-88
2023/05/25 05:13:34;;;;;;;;;;;13.30;70.30;;;13.67;47.28;99121.94;5055965;27;114300;-87
2023/05/25 05:16:08;;;;;;;;;;;13.30;70.60;;;13.64;47.83;99122.56;5083042;27;114546;-87
2023/05/25 05:18:34;;;;;;;;;;;13.30;71.50;;;13.59;47.79;99125.47;5088369;27;124360;-88
2023/05/25 05:21:00;;;;;;;;;;;13.30;71.80;;;13.58;48.14;99134.16;5087864;27;124019;-86
2023/05/25 05:23:33;;;;;;;;;;;13.30;72.20;;;13.61;48.01;99122.41;5087941;27;114371;-85
2023/05/25 05:25:59;;;;;;;;;;;13.30;71.80;;;13.68;48.09;99143.00;5066876;27;113857;-86
2023/05/25 05:28:31;;;;;;;;;;;13.30;72.00;;;13.69;47.75;99139.06;5087491;27;124425;-86
2023/05/25 05:30:58;;;;;;;;;;;13.30;72.00;;;13.75;48.15;99144.47;5089302;27;124440;-87
2023/05/25 05:33:24;;;;;;;;;;;13.40;72.30;;;13.78;48.00;99143.81;5087792;27;114912;-87
2023/05/25 05:35:53;;;;;;;;;;;13.30;72.20;;;13.77;48.22;99165.22;5052272;27;113392;-85
2023/05/25 05:38:20;;;;;;;;;;;13.30;72.60;;;13.77;47.73;99156.88;5068914;27;123548;-87
2023/05/25 05:40:46;;;;;;;;;;;13.40;72.60;;;13.83;47.96;99147.22;5090625;27;123922;-86
2023/05/25 05:43:13;;;;;;;;;;;13.40;72.40;;;13.91;47.57;99153.94;5068025;27;113943;-87
2023/05/25 05:45:41;;;;;;;;;;;13.50;72.30;;;13.97;47.76;99149.88;5093920;27;113017;-87
2023/05/25 05:48:11;;;;;;;;;;;13.50;72.40;;;14.01;47.56;99155.59;5095308;27;124336;-87
2023/05/25 05:50:43;;;;;;;;;;;13.50;72.30;;;14.03;47.31;99151.34;5090031;27;124290;-86
2023/05/25 05:53:10;;;;;;;;;;;13.60;72.20;;;14.09;47.11;99147.25;5080957;27;114888;-84
2023/05/25 05:55:36;;;;;;;;;;;13.60;72.00;;;14.15;47.19;99159.81;5068854;27;113559;-86
2023/05/25 05:58:05;;;;;;;;;;;13.70;72.10;;;14.21;47.10;99168.84;5089974;27;123587;-88
2023/05/25 06:00:32;;;;;;;;;;;13.80;72.20;;;14.22;47.27;99172.44;5083875;27;124194;-86
2023/05/25 06:02:59;;;;;;;;;;;13.80;72.40;;;14.22;47.25;99180.78;5059846;27;116100;-87
2023/05/25 06:05:25;;;;;;;;;;;13.80;72.30;;;14.21;47.36;99171.63;5082912;27;115227;-86
2023/05/25 06:07:53;;;;;;;;;;;13.80;72.20;;;14.23;47.67;99185.16;5067021;27;124205;-85
2023/05/25 06:10:20;;;;;;;;;;;13.80;72.70;;;14.29;47.65;99189.41;5054882;27;123547;-85
2023/05/25 06:12:46;;;;;;;;;;;13.90;72.80;;;14.36;47.55;99186.97;5065761;27;114962;-86
2023/05/25 06:15:12;;;;;;;;;;;16.00;74.90;;;14.45;47.45;99190.53;5076281;27;113265;-85
2023/05/25 06:17:41;;;;;;;;;;;14.00;72.90;;;14.50;46.88;99189.56;5073985;27;124591;-85
2023/05/25 06:20:08;;;;;;;;;;;14.00;72.50;;;14.51;47.62;99189.25;5081188;27;123223;-85
2023/05/25 06:22:35;;;;;;;;;;;14.10;72.60;;;14.54;46.96;99183.06;5060248;27;113445;-85
2023/05/25 06:25:05;;;;;;;;;;;14.10;72.50;;;14.62;46.91;99186.16;5077469;27;113910;-86
2023/05/25 06:27:42;;;;;;;;;;;14.20;72.60;;;14.71;46.97;99189.72;5071641;27;124256;-88
2023/05/25 06:30:09;;;;;;;;;;;14.20;73.20;;;14.78;46.88;99176.97;5041435;27;124402;-88
2023/05/25 06:32:35;;;;;;;;;;;14.30;72.70;;;14.90;46.78;99179.03;5047391;27;114997;-86
2023/05/25 06:35:05;;;;;;;;;;;14.40;72.90;;;15.02;46.60;99181.16;5046414;27;113777;-86
2023/05/25 06:37:36;;;;;;;;;;;14.40;73.10;;;15.08;46.46;99179.81;5066457;27;124176;-84
2023/05/25 06:40:08;;;;;;;;;;;14.50;72.90;;;15.11;46.61;99175.53;5071605;27;123475;-85
2023/05/25 06:42:45;;;;;;;;;;;14.50;72.80;;;15.11;46.77;99183.91;5061891;27;114430;-88
2023/05/25 06:45:16;;;;;;;;;;;14.60;72.90;;;15.14;46.71;99194.34;5063372;27;113682;-86
2023/05/25 06:47:43;;;;;;;;;;;14.60;72.90;;;15.17;46.69;99177.78;5071358;27;125659;-87
2023/05/25 06:50:12;;;;;;;;;;;14.60;72.80;;;15.17;46.81;99182.56;5048122;27;124032;-86
2023/05/25 06:52:41;;;;;;;;;;;14.60;73.20;;;15.13;46.89;99185.19;5080701;27;114866;-88
2023/05/25 06:55:08;;;;;;;;;;;14.60;73.10;;;15.14;47.07;99188.78;5079812;27;114730;-88
2023/05/25 06:57:34;;;;;;;;;;;14.60;73.20;;;15.15;47.00;99195.97;5081191;27;124460;-84
2023/05/25 07:00:00;;;;;;;;;;;14.70;73.30;;;15.19;47.08;99191.38;5052251;27;124041;-88
2023/05/25 07:02:30;;;;;;;;;;;14.70;73.30;;;15.21;47.35;99189.91;5072167;27;114237;-87
2023/05/25 07:04:56;;;;;;;;;;;14.80;73.90;;;15.24;47.30;99199.56;5090267;27;113613;-87
2023/05/25 07:07:22;;;;;;;;;;;14.70;74.00;;;15.24;47.63;99194.00;5089260;27;124134;-86
2023/05/25 07:09:48;;;;;;;;;;;14.80;74.10;;;15.23;47.39;99197.91;5088652;27;122841;-86
2023/05/25 07:12:18;;;;;;;;;;;14.80;74.30;;;15.22;47.57;99210.22;5078768;27;115827;-89
2023/05/25 07:14:47;;;;;;;;;;;14.80;74.50;;;15.23;47.83;99204.31;5074253;27;114018;-87
2023/05/25 07:17:17;;;;;;;;;;;14.80;74.90;;;15.25;47.99;99195.63;5056529;27;124145;-88
2023/05/25 07:19:44;;;;;;;;;;;14.80;75.00;;;15.24;47.98;99205.13;5066452;27;124340;-88
2023/05/25 07:22:12;;;;;;;;;;;14.90;75.00;;;15.27;47.62;99204.47;5055825;27;113340;-85
2023/05/25 07:24:41;;;;;;;;;;;14.90;74.70;;;15.30;48.07;99208.53;5066683;27;113864;-86
2023/05/25 07:27:08;;;;;;;;;;;14.90;74.80;;;15.32;47.64;99212.63;5078765;27;124108;-86
2023/05/25 07:29:34;;;;;;;;;;;15.00;74.70;;;15.39;47.75;99206.53;5070222;27;124079;-86
2023/05/25 07:32:05;;;;;;;;;;;15.00;74.80;;;15.49;47.82;99219.28;5053980;27;114317;-84
2023/05/25 07:34:34;;;;;;;;;;;15.10;75.00;;;15.56;47.55;99217.59;5052201;27;112762;-86
2023/05/25 07:37:01;;;;;;;;;;;15.10;75.10;;;15.60;47.55;99204.63;5068471;27;124479;-84
2023/05/25 07:39:29;;;;;;;;;;;15.10;74.80;;;15.65;47.49;99209.19;5075981;27;123824;-84
2023/05/25 07:41:56;;;;;;;;;;;15.20;74.80;;;15.64;47.41;99202.81;5086453;27;115252;-86
2023/05/25 07:44:22;;;;;;;;;;;15.20;74.80;;;15.63;47.62;99219.84;5079045;27;116472;-87
2023/05/25 07:46:48;;;;;;;;;;;15.20;75.00;;;15.67;47.56;99206.88;5076741;27;124771;-87
2023/05/25 07:49:18;;;;;;;;;;;15.30;75.10;;;15.77;47.58;99212.09;5064734;27;123250;-85
2023/05/25 07:51:44;;;;;;;;;;;15.30;75.10;;;15.85;47.35;99218.75;5067068;27;114242;-83
2023/05/25 07:54:13;;;;;;;;;;;15.40;75.40;;;15.90;47.39;99211.03;5041518;27;113512;-85
2023/05/25 07:56:42;;;;;;;;;;;15.40;75.30;;;15.96;47.49;99213.59;5068766;27;123791;-86
2023/05/25 07:59:09;;;;;;;;;;;15.50;75.40;;;16.01;47.34;99216.19;5066615;27;123904;-86
2023/05/25 08:01:45;;;;;;;;;;;15.50;75.40;;;16.10;47.42;99208.59;5071688;27;114505;-84
2023/05/25 08:04:14;;;;;;;;;;;15.60;75.50;;;16.21;47.12;99209.84;5055547;27;112882;-85
2023/05/25 08:06:42;;;;;;;;;;;15.60;75.80;;;16.34;47.32;99208.75;5079170;27;123442;-85
2023/05/25 08:09:09;;;;;;;;;;;15.70;75.90;;;16.48;47.10;99202.06;5088094;27;124636;-84
2023/05/25 08:11:35;;;;;;;;;;;15.90;75.70;;;16.58;46.79;99207.22;5071495;27;114530;-86
2023/05/25 08:14:01;;;;;;;;;;;16.00;75.50;;;16.66;46.72;99200.75;5073984;27;112647;-84
2023/05/25 08:16:35;;;;;;;;;;;16.00;75.30;;;16.66;46.35;99200.75;5086246;27;124301;-83
2023/05/25 08:19:06;;;;;;;;;;;16.10;74.90;;;16.72;46.50;99188.19;5057109;27;122923;-84
2023/05/25 08:21:33;;;;;;;;;;;16.20;75.00;;;16.82;46.51;99200.09;5056344;27;113677;-85
2023/05/25 08:24:02;;;;;;;;;;;16.20;75.00;;;16.87;46.48;99195.16;5065279;27;113983;-85
2023/05/25 08:26:31;;;;;;;;;;;16.30;75.30;;;16.95;46.28;99198.97;5063450;27;123440;-83
2023/05/25 08:28:57;;;;;;;;;;;16.40;75.30;;;17.03;46.35;99192.50;5078854;27;123243;-83
2023/05/25 08:31:23;;;;;;;;;;;16.40;75.10;;;17.12;46.09;99193.22;5068975;27;115294;-83
2023/05/25 08:33:49;;;;;;;;;;;16.50;75.10;;;17.22;46.18;99191.94;5053227;27;113984;-83
2023/05/25 08:36:19;;;;;;;;;;;16.60;75.20;;;17.30;45.85;99204.16;5063689;27;124060;-83
2023/05/25 08:38:45;;;;;;;;;;;16.70;75.10;;;17.41;45.84;99211.75;5071308;27;123962;-83
2023/05/25 08:41:12;;;;;;;;;;;16.80;75.20;;;17.49;45.42;99212.81;5073934;27;114013;-84
2023/05/25 08:43:42;;;;;;;;;;;16.80;75.40;;;17.49;45.65;99210.03;5064957;27;114305;-83
2023/05/25 08:46:08;;;;;;;;;;;16.30;74.10;;;17.50;45.87;99205.25;5077121;27;124156;-84
2023/05/25 08:48:42;;;;;;;;;;;18.10;76.00;;;17.55;45.46;99205.03;5091351;27;123117;-85
2023/05/25 08:51:10;;;;;;;;;;;16.90;74.80;;;17.59;45.55;99215.13;5047822;27;113657;-84
2023/05/25 08:53:38;;;;;;;;;;;17.00;74.70;;;17.60;45.54;99213.16;5056691;27;112865;-83
2023/05/25 08:56:25;;;;;;;;;;;17.00;74.60;;;17.60;45.64;99219.56;5060387;27;124174;-82
2023/05/25 08:59:12;;;;;;;;;;;17.10;74.70;;;17.65;45.58;99205.38;5082985;27;124311;-84
2023/05/25 09:01:46;;;;;;;;;;;17.10;74.80;;;17.77;45.84;99212.91;5088171;27;114550;-84
2023/05/25 09:04:13;;;;;;;;;;;17.20;75.10;;;17.82;45.60;99200.72;5055350;27;113248;-83
2023/05/25 09:06:44;;;;;;;;;;;17.30;75.10;;;17.88;45.43;99191.72;5055388;27;123836;-84
2023/05/25 09:09:11;;;;;;;;;;;17.30;74.90;;;18.00;45.63;99204.06;5069862;27;124230;-83
2023/05/25 09:11:44;;;;;;;;;;;17.40;75.10;;;18.07;45.16;99196.72;5060797;27;114455;-83
2023/05/25 09:14:13;;;;;;;;;;;17.50;74.90;;;18.15;45.42;99199.72;5048459;27;113495;-83
2023/05/25 09:16:42;;;;;;;;;;;17.60;75.00;;;18.19;45.21;99195.88;5070148;27;124118;-83
2023/05/25 09:19:08;;;;;;;;;;;17.60;74.80;;;18.26;45.11;99200.84;5048697;27;124299;-84
2023/05/25 09:21:35;;;;;;;;;;;17.70;74.70;;;18.27;45.09;99205.31;5058970;27;115680;-83
2023/05/25 09:24:07;;;;;;;;;;;17.80;74.60;;;18.27;45.10;99197.72;5050355;27;114279;-83
2023/05/25 09:26:34;;;;;;;;;;;17.80;74.50;;;18.27;44.99;99202.50;5065539;27;124360;-83
2023/05/25 09:29:00;;;;;;;;;;;17.10;73.50;;;18.28;45.18;99204.13;5081091;27;124165;-84
2023/05/25 09:31:30;;;;;;;;;;;17.80;74.30;;;18.28;45.16;99199.34;5070152;27;114390;-82
2023/05/25 09:33:59;;;;;;;;;;;17.90;74.30;;;18.32;45.06;99214.25;5055381;27;113881;-83
2023/05/25 09:36:34;;;;;;;;;;;17.90;74.20;;;18.40;44.93;99208.84;5062168;27;123829;-83
2023/05/25 09:39:00;;;;;;;;;;;17.90;74.20;;;18.44;45.07;99212.59;5085400;27;124211;-83
2023/05/25 09:41:30;;;;;;;;;;;18.00;74.30;;;18.48;45.01;99203.13;5051978;27;115909;-83
2023/05/25 09:43:57;;;;;;;;;;;18.00;74.40;;;18.55;44.80;99208.91;5071465;27;113566;-83
2023/05/25 09:46:25;;;;;;;;;;;18.00;74.30;;;18.63;44.60;99197.94;5088994;27;124458;-84
2023/05/25 09:48:56;;;;;;;;;;;18.10;74.40;;;18.70;44.70;99206.53;5065937;27;124035;-84
2023/05/25 09:51:22;;;;;;;;;;;18.20;74.40;;;18.76;44.51;99205.94;5065703;27;114592;-84
2023/05/25 09:53:49;;;;;;;;;;;18.20;74.30;;;18.83;44.39;99208.13;5044160;27;113482;-86
2023/05/25 09:56:20;;;;;;;;;;;18.20;74.30;;;18.91;44.54;99209.97;5072905;27;124536;-84
2023/05/25 09:58:46;;;;;;;;;;;18.30;74.30;;;19.00;44.57;99207.00;5085761;27;124585;-85
2023/05/25 10:01:19;;;;;;;;;;;18.40;74.40;;;19.09;44.14;99202.03;5062051;27;113841;-83
2023/05/25 10:03:55;;;;;;;;;;;18.50;74.20;;;19.17;44.02;99194.63;5078608;27;113084;-84
2023/05/25 10:06:22;;;;;;;;;;;18.60;74.70;;;19.21;44.26;99203.97;5086085;27;124161;-85
2023/05/25 10:08:56;;;;;;;;;;;18.70;73.90;;;19.28;43.63;99211.72;5069757;27;123981;-84
2023/05/25 10:11:23;;;;;;;;;;;18.70;73.60;;;19.34;43.74;99202.69;5064685;27;114645;-83
2023/05/25 10:13:54;;;;;;;;;;;18.80;73.40;;;19.40;43.79;99198.44;5074717;27;114763;-84
2023/05/25 10:16:33;;;;;;;;;;;18.80;73.50;;;19.49;43.67;99200.25;5072714;27;124316;-82
2023/05/25 10:19:10;;;;;;;;;;;18.90;73.50;;;19.57;42.99;99210.47;5077262;27;124042;-83
2023/05/25 10:21:37;;;;;;;;;;;19.20;73.50;;;19.62;43.18;99204.56;5081956;27;114068;-83
2023/05/25 10:24:23;;;;;;;;;;;19.10;73.20;;;19.71;43.25;99208.03;5057332;27;113821;-84
2023/05/25 10:26:55;;;;;;;;;;;19.10;73.10;;;19.79;42.97;99198.59;5062969;27;124321;-83
2023/05/25 10:29:23;;;;;;;;;;;19.20;72.80;;;19.85;43.05;99202.78;5056326;27;123543;-82
2023/05/25 10:31:53;;;;;;;;;;;19.20;72.80;;;19.91;42.58;99186.47;5060903;27;114504;-83
2023/05/25 10:34:21;;;;;;;;;;;19.30;72.40;;;19.98;42.91;99197.03;5050640;27;112932;-82
2023/05/25 10:36:47;;;;;;;;;;;19.40;72.60;;;20.05;42.57;99198.00;5066285;27;125563;-82
2023/05/25 10:39:21;;;;;;;;;;;19.50;72.60;;;20.15;42.65;99191.03;5065368;27;124354;-83
2023/05/25 10:41:47;;;;;;;;;;;19.50;72.50;;;20.25;42.56;99182.00;5050315;27;114020;-84
2023/05/25 10:44:17;;;;;;;;;;;19.70;72.50;;;20.37;42.29;99191.47;5070848;27;113639;-82
2023/05/25 10:46:44;;;;;;;;;;;19.70;72.20;;;20.44;41.96;99197.22;5066330;27;123518;-82
2023/05/25 10:49:10;;;;;;;;;;;19.80;71.80;;;20.44;41.72;99186.81;5068067;27;124500;-84
2023/05/25 10:51:56;;;;;;;;;;;19.90;71.70;;;20.51;41.94;99188.97;5059041;27;113634;-92
2023/05/25 10:54:32;;;;;;;;;;;19.90;71.90;;;20.65;41.88;99192.09;5086756;27;114074;-85
2023/05/25 10:57:17;;;;;;;;;;;20.00;71.80;;;20.74;41.34;99187.06;5062425;27;124231;-83
2023/05/25 11:00:06;;;;;;;;;;;20.10;71.70;;;20.81;41.44;99182.75;5079597;27;124272;-83
2023/05/25 11:02:55;;;;;;;;;;;20.20;71.20;;;20.81;41.44;99179.97;5056085;27;114770;-83
2023/05/25 11:05:31;;;;;;;;;;;20.20;71.10;;;20.86;40.91;99179.66;5077142;27;114686;-83
2023/05/25 11:08:11;;;;;;;;;;;18.50;69.00;;;20.95;40.94;99191.44;5068149;27;122665;-83
2023/05/25 11:10:43;;;;;;;;;;;20.40;70.90;;;21.04;41.27;99185.63;5071198;27;123433;-83
2023/05/25 11:13:21;;;;;;;;;;;20.50;71.00;;;21.12;41.25;99179.75;5083808;27;115229;-82
2023/05/25 11:16:16;;;;;;;;;;;20.40;70.80;;;21.22;40.93;99177.50;5087096;27;113422;-82
2023/05/25 11:19:03;;;;;;;;;;;20.60;70.80;;;21.31;40.82;99180.88;5068805;27;123842;-83
2023/05/25 11:21:30;;;;;;;;;;;20.70;70.40;;;21.37;40.34;99174.59;5060761;27;123724;-83
2023/05/25 11:24:05;;;;;;;;;;;20.80;70.20;;;21.43;40.51;99169.44;5083726;27;114923;-83